Time;durP1;ratioP1;P1;durP2;ratioP2;P2;SDS_P1;SDS_P2;PMS_P1;PMS_P2;Temp;Humidity;BMP_temperature;BMP_pressure;BME280_temperature;BME280_humidity;BME280_pressure;Samples;Min_cycle;Max_cycle;Signal;HPM_P1;HPM_P2
2022/04/19 00:00:44;;;;;;;3.63;3.42;;;;;;;3.28;74.55;94512.91;5001164;28;20038;-79
2022/04/19 00:03:11;;;;;;;3.60;3.30;;;;;;;3.40;74.36;94503.63;4999475;28;20032;-79
2022/04/19 00:05:36;;;;;;;3.63;3.42;;;;;;;3.52;73.57;94504.63;5016299;28;20653;-80
2022/04/19 00:08:06;;;;;;;3.63;3.33;;;;;;;3.50;73.08;94498.13;5000408;28;20034;-80
2022/04/19 00:10:31;;;;;;;3.08;2.90;;;;;;;3.56;73.47;94492.97;5016071;28;20048;-79
2022/04/19 00:13:01;;;;;;;3.40;3.20;;;;;;;3.67;73.05;94499.31;5016840;28;20433;-80
2022/04/19 00:15:28;;;;;;;3.42;3.22;;;;;;;3.77;72.40;94488.66;5017984;28;20058;-80
2022/04/19 00:17:58;;;;;;;3.10;2.90;;;;;;;3.83;72.48;94485.28;5001733;28;20101;-79
2022/04/19 00:20:24;;;;;;;3.20;3.00;;;;;;;3.94;72.36;94486.47;5017375;28;20034;-80
2022/04/19 00:22:50;;;;;;;3.33;3.13;;;;;;;4.02;71.54;94487.06;5017313;28;20037;-79
2022/04/19 00:25:16;;;;;;;3.40;3.10;;;;;;;4.07;70.94;94484.69;5016744;28;20044;-79
2022/04/19 00:27:42;;;;;;;3.28;3.08;;;;;;;4.17;70.76;94479.91;5002496;28;20137;-79
2022/04/19 00:30:08;;;;;;;3.35;3.13;;;;;;;4.10;70.57;94480.94;5007463;28;20128;-80
2022/04/19 00:32:34;;;;;;;3.45;3.25;;;;;;;4.15;70.88;94469.03;5001901;28;20108;-80
2022/04/19 00:35:00;;;;;;;3.72;3.35;;;;;;;4.16;70.64;94475.75;5001681;28;20049;-79
2022/04/19 00:37:26;;;;;;;3.35;3.15;;;;;;;4.28;70.55;94481.09;5016920;28;20037;-79
2022/04/19 00:39:52;;;;;;;3.95;3.70;;;;;;;4.38;69.63;94473.72;5020944;28;20557;-79
2022/04/19 00:42:18;;;;;;;3.40;3.20;;;;;;;4.41;69.70;94470.78;4999604;28;20113;-79
2022/04/19 00:44:43;;;;;;;7.47;3.95;;;;;;;4.51;68.83;94465.19;4999537;28;20038;-79
2022/04/19 00:47:09;;;;;;;2.97;2.88;;;;;;;4.57;69.20;94466.97;4999829;28;20457;-80
2022/04/19 00:49:39;;;;;;;3.33;3.10;;;;;;;4.63;69.48;94468.72;5015684;28;20073;-79
2022/04/19 00:52:05;;;;;;;3.28;3.08;;;;;;;4.69;68.99;94461.97;5002149;28;20038;-79
2022/04/19 00:54:31;;;;;;;3.20;3.00;;;;;;;4.72;68.65;94464.94;5019060;28;20034;-80
2022/04/19 00:56:56;;;;;;;3.38;3.17;;;;;;;4.75;68.10;94461.97;5000479;28;20082;-79
2022/04/19 00:59:22;;;;;;;3.08;2.90;;;;;;;4.68;68.12;94461.16;5000952;28;20030;-80
2022/04/19 01:01:50;;;;;;;3.88;3.33;;;;;;;4.63;68.30;94463.56;5017578;28;20041;-80
2022/04/19 01:04:16;;;;;;;3.20;3.00;;;;;;;4.63;68.10;94463.56;5017987;28;20030;-80
2022/04/19 01:06:42;;;;;;;3.50;3.30;;;;;;;4.44;69.14;94459.28;4998987;28;20167;-79
2022/04/19 01:09:07;;;;;;;4.07;3.67;;;;;;;4.44;68.99;94454.13;4999787;28;20026;-79
2022/04/19 01:14:17;;;;;;;3.70;3.40;;;;;;;4.30;69.30;94455.16;5015251;28;20044;-79
2022/04/19 01:16:42;;;;;;;3.90;3.70;;;;;;;4.41;69.58;94452.75;5013550;28;20041;-80
2022/04/19 01:19:16;;;;;;;3.47;3.25;;;;;;;4.26;69.40;94461.72;4997881;28;20414;-79
2022/04/19 01:21:48;;;;;;;3.80;3.50;;;;;;;4.26;70.00;94454.78;4998280;28;20065;-80
2022/04/19 01:24:18;;;;;;;3.85;3.55;;;;;;;4.22;70.15;94454.34;4997193;28;20046;-79
2022/04/19 01:26:44;;;;;;;3.65;3.40;;;;;;;4.19;70.01;94457.34;5014595;28;20057;-79
2022/04/19 01:29:10;;;;;;;3.72;3.50;;;;;;;4.19;69.78;94451.41;5015426;28;20030;-79
2022/04/19 01:31:39;;;;;;;3.55;3.35;;;;;;;4.26;70.27;94456.56;5008705;28;20124;-79
2022/04/19 01:34:05;;;;;;;4.28;3.97;;;;;;;4.31;69.64;94451.59;5014196;28;20061;-79
2022/04/19 01:36:32;;;;;;;4.57;4.18;;;;;;;4.26;69.42;94451.41;4999567;28;20034;-79
2022/04/19 01:38:58;;;;;;;5.72;4.43;;;;;;;4.17;70.68;94450.81;5000177;28;20037;-79
2022/04/19 01:41:23;;;;;;;5.72;5.22;;;;;;;4.29;69.97;94451.00;5011859;28;20034;-79
2022/04/19 01:43:49;;;;;;;5.15;4.75;;;;;;;4.29;69.76;94448.44;5013621;28;20034;-79
2022/04/19 01:46:17;;;;;;;5.20;4.70;;;;;;;4.32;69.76;94446.22;5030760;28;20091;-78
2022/04/19 01:48:43;;;;;;;4.53;3.97;;;;;;;4.34;69.24;94448.59;5009629;28;20037;-78
2022/04/19 01:51:09;;;;;;;6.20;5.55;;;;;;;4.29;69.36;94456.16;5031492;28;20044;-79
2022/04/19 01:53:34;;;;;;;4.93;4.50;;;;;;;4.31;69.77;94449.00;5031741;28;20033;-78
2022/04/19 01:56:00;;;;;;;4.78;4.43;;;;;;;4.29;69.85;94445.84;5014116;28;20030;-78
2022/04/19 01:58:25;;;;;;;5.97;5.10;;;;;;;4.40;69.77;94447.81;5029099;28;20034;-78
2022/04/19 02:00:51;;;;;;;6.15;4.80;;;;;;;4.45;68.96;94453.13;5000169;28;20038;-78
2022/04/19 02:03:17;;;;;;;4.63;4.30;;;;;;;4.43;68.48;94452.56;4996385;28;20065;-78
2022/04/19 02:05:42;;;;;;;4.82;4.38;;;;;;;4.31;69.36;94449.00;5013474;28;20052;-78
2022/04/19 02:08:08;;;;;;;4.30;4.00;;;;;;;4.36;69.67;94449.19;4996342;28;20038;-79
2022/04/19 02:10:34;;;;;;;4.57;4.18;;;;;;;4.38;69.38;94449.78;5012341;28;20030;-78
2022/04/19 02:12:59;;;;;;;5.65;5.20;;;;;;;4.38;69.25;94447.19;4995179;28;20045;-80
2022/04/19 02:15:25;;;;;;;4.90;4.53;;;;;;;4.08;69.78;94445.09;5000512;28;20036;-79
2022/04/19 02:17:50;;;;;;;4.40;4.03;;;;;;;3.92;70.46;94448.88;5033775;28;20046;-79
2022/04/19 02:20:17;;;;;;;4.60;4.30;;;;;;;3.87;71.70;94447.88;5032372;28;20033;-79
2022/04/19 02:22:43;;;;;;;4.60;4.30;;;;;;;4.00;71.27;94442.72;5016236;28;20435;-79
2022/04/19 02:25:09;;;;;;;4.93;4.53;;;;;;;4.06;70.58;94456.56;5016342;28;20034;-80
2022/04/19 02:27:34;;;;;;;5.45;5.05;;;;;;;4.04;70.60;94454.19;5000512;28;20042;-80
2022/04/19 02:30:04;;;;;;;5.32;4.93;;;;;;;4.13;70.68;94447.06;5003489;28;20034;-78
2022/04/19 02:32:30;;;;;;;5.65;5.22;;;;;;;4.11;70.66;94442.13;5003555;28;20037;-80
2022/04/19 02:34:57;;;;;;;5.47;5.03;;;;;;;4.19;70.46;94449.63;5014385;28;20030;-81
2022/04/19 02:37:22;;;;;;;6.13;5.63;;;;;;;4.15;70.24;94445.88;4995953;28;20042;-80
2022/04/19 02:39:49;;;;;;;6.82;5.72;;;;;;;4.22;70.36;94451.00;4998731;28;20032;-78
2022/04/19 02:42:14;;;;;;;5.53;5.10;;;;;;;4.16;70.24;94447.44;5016574;28;20038;-80
2022/04/19 02:44:40;;;;;;;6.35;5.40;;;;;;;3.87;71.01;94442.72;4999131;28;20062;-80
2022/04/19 02:47:06;;;;;;;5.90;5.40;;;;;;;3.96;71.75;94446.69;4998947;28;20034;-80
2022/04/19 02:49:32;;;;;;;5.18;4.78;;;;;;;3.96;71.76;94446.69;5015905;28;20041;-80
2022/04/19 02:51:58;;;;;;;7.22;6.57;;;;;;;3.82;71.90;94447.69;5001614;28;20041;-80
2022/04/19 02:54:23;;;;;;;5.63;5.20;;;;;;;3.98;71.72;94455.00;4998239;28;20038;-80
2022/04/19 02:56:49;;;;;;;5.88;5.38;;;;;;;3.86;71.84;94454.81;4999425;28;20069;-80
2022/04/19 02:59:14;;;;;;;4.18;3.88;;;;;;;3.84;71.42;94458.56;5022258;28;20030;-79
2022/04/19 03:01:40;;;;;;;4.97;4.57;;;;;;;3.87;71.85;94464.09;5026132;28;20420;-79
2022/04/19 03:04:05;;;;;;;5.10;4.70;;;;;;;3.99;72.43;94456.59;5026547;28;20134;-80
2022/04/19 03:06:31;;;;;;;5.53;4.45;;;;;;;4.05;71.33;94460.13;5002536;28;20111;-80
2022/04/19 03:08:56;;;;;;;4.50;4.18;;;;;;;4.05;71.30;94463.50;5002141;28;20038;-80
2022/04/19 03:11:22;;;;;;;4.57;4.28;;;;;;;4.14;71.04;94470.03;5018977;28;20467;-80
2022/04/19 03:13:47;;;;;;;4.97;4.60;;;;;;;4.26;70.61;94472.78;5017953;28;20045;-80
2022/04/19 03:16:14;;;;;;;4.80;4.22;;;;;;;4.37;70.16;94473.94;5002616;28;20046;-80
2022/04/19 03:18:43;;;;;;;4.82;4.43;;;;;;;4.46;70.08;94477.88;5002434;28;20502;-80
2022/04/19 03:21:11;;;;;;;6.00;5.50;;;;;;;4.47;69.58;94474.31;5020956;28;20137;-80
2022/04/19 03:29:06;;;;;;;5.25;4.85;;;;;;;4.62;68.92;94485.19;5021094;28;20581;-80
2022/04/19 03:31:32;;;;;;;5.25;4.82;;;;;;;4.65;69.18;94479.63;5018229;28;20037;-79
2022/04/19 03:33:58;;;;;;;5.00;4.63;;;;;;;4.69;68.80;94478.22;4999624;28;20041;-79
2022/04/19 03:36:24;;;;;;;4.65;4.30;;;;;;;4.80;68.19;94484.53;5017180;28;20042;-78
2022/04/19 03:38:49;;;;;;;4.97;4.68;;;;;;;4.77;68.56;94485.72;5001486;28;20429;-79
2022/04/19 03:41:15;;;;;;;4.85;4.20;;;;;;;4.86;68.66;94491.41;5004354;28;20069;-79
2022/04/19 03:43:41;;;;;;;4.60;4.30;;;;;;;4.91;67.49;94495.97;5017530;28;20095;-79
2022/04/19 03:46:08;;;;;;;5.68;4.95;;;;;;;4.93;67.54;94494.00;5016895;28;20041;-78
2022/04/19 03:48:34;;;;;;;6.00;4.60;;;;;;;4.92;68.05;94497.56;4999081;28;20504;-78
2022/04/19 03:51:00;;;;;;;5.75;4.78;;;;;;;4.95;67.93;94500.50;5000245;28;20029;-78
2022/04/19 03:53:25;;;;;;;4.65;4.35;;;;;;;5.02;67.25;94501.28;5017142;28;20037;-80
2022/04/19 03:55:50;;;;;;;5.03;4.63;;;;;;;5.03;67.59;94507.22;5001092;28;20049;-80
2022/04/19 03:58:16;;;;;;;4.80;4.50;;;;;;;5.04;67.18;94503.63;4998447;28;20034;-81
2022/04/19 04:00:42;;;;;;;5.22;4.72;;;;;;;4.99;67.14;94506.03;4998545;28;20052;-81
2022/04/19 04:03:08;;;;;;;6.13;5.63;;;;;;;5.08;66.61;94510.78;4998171;28;20042;-82
2022/04/19 04:05:33;;;;;;;4.32;4.03;;;;;;;5.11;66.37;94514.72;5015050;28;20038;-80
2022/04/19 04:07:59;;;;;;;4.68;4.28;;;;;;;5.15;66.67;94513.31;4998186;28;20428;-80
2022/04/19 04:10:24;;;;;;;5.47;5.05;;;;;;;5.02;65.07;94508.22;5015886;28;20034;-79
2022/04/19 04:12:50;;;;;;;5.68;5.28;;;;;;;5.08;66.01;94512.56;5013987;28;20536;-79
2022/04/19 04:15:16;;;;;;;7.00;6.40;;;;;;;5.15;66.14;94515.88;5013259;28;20103;-79
2022/04/19 04:17:43;;;;;;;7.70;7.03;;;;;;;5.13;66.55;94512.72;5015203;28;20046;-83
2022/04/19 04:20:09;;;;;;;7.93;7.15;;;;;;;5.17;66.88;94515.69;4999262;28;20053;-80
2022/04/19 04:22:35;;;;;;;8.57;7.32;;;;;;;5.15;67.43;94518.47;4998078;28;20038;-79
2022/04/19 04:25:00;;;;;;;9.52;8.55;;;;;;;5.17;67.43;94516.47;5014474;28;20370;-81
2022/04/19 04:27:25;;;;;;;8.35;7.55;;;;;;;5.26;67.40;94525.56;5019200;28;20037;-80
2022/04/19 04:29:51;;;;;;;10.50;8.15;;;;;;;5.30;66.60;94516.41;5016446;28;20054;-81
2022/04/19 04:32:16;;;;;;;9.73;8.73;;;;;;;5.28;66.40;94528.72;5015562;28;20038;-80
2022/04/19 04:34:42;;;;;;;10.52;9.50;;;;;;;5.39;66.07;94530.66;5006618;28;20046;-80
2022/04/19 04:37:08;;;;;;;10.88;9.73;;;;;;;5.35;66.05;94532.03;5014232;28;20034;-80
2022/04/19 04:39:33;;;;;;;14.55;11.48;;;;;;;5.40;66.20;94532.25;5014091;28;20485;-79
2022/04/19 04:41:59;;;;;;;14.57;12.23;;;;;;;5.44;66.74;94532.63;5013895;28;20033;-80
2022/04/19 04:44:24;;;;;;;16.75;13.50;;;;;;;5.44;66.21;94532.63;5015788;28;20056;-79
2022/04/19 04:49:36;;;;;;;25.15;17.55;;;;;;;5.52;66.32;94539.31;5001307;28;20108;-79
2022/04/19 04:52:09;;;;;;;31.25;20.52;;;;;;;5.59;66.50;94535.69;5014627;28;20045;-80
2022/04/19 04:54:36;;;;;;;23.40;17.98;;;;;;;5.63;66.27;94538.66;4996565;28;20046;-79
2022/04/19 04:57:02;;;;;;;24.65;17.02;;;;;;;5.64;66.66;94538.44;5013571;28;20042;-80
2022/04/19 04:59:29;;;;;;;27.90;14.63;;;;;;;5.67;66.42;94538.03;5013352;28;20477;-80
2022/04/19 05:01:55;;;;;;;18.58;14.52;;;;;;;5.73;64.95;94544.16;5005281;28;20066;-80
2022/04/19 05:04:21;;;;;;;19.10;14.73;;;;;;;5.80;65.32;94541.53;4997012;28;20037;-80
2022/04/19 05:06:46;;;;;;;24.73;17.60;;;;;;;5.92;65.54;94550.22;5013475;28;20057;-80
2022/04/19 05:09:12;;;;;;;23.73;17.52;;;;;;;6.01;64.96;94542.00;4996520;28;20112;-78
2022/04/19 05:11:37;;;;;;;36.40;20.45;;;;;;;6.13;64.04;94536.94;4996640;28;20050;-78
2022/04/19 05:14:03;;;;;;;35.28;23.85;;;;;;;6.25;64.27;94529.31;4997547;28;20042;-79
2022/04/19 05:16:28;;;;;;;38.53;26.30;;;;;;;6.42;64.27;94542.47;4997345;28;20034;-78
2022/04/19 05:18:54;;;;;;;23.80;18.25;;;;;;;6.53;62.41;94541.78;5012750;28;20134;-79
2022/04/19 05:21:20;;;;;;;25.63;18.52;;;;;;;6.62;62.04;94543.88;5014146;28;20021;-80
2022/04/19 05:23:46;;;;;;;28.48;20.50;;;;;;;6.81;61.35;94538.72;4999329;28;20049;-80
2022/04/19 05:26:12;;;;;;;33.33;20.55;;;;;;;6.75;61.67;94542.16;4997354;28;20056;-79
2022/04/19 05:28:37;;;;;;;16.98;12.30;;;;;;;6.75;62.28;94549.91;4980268;28;20029;-79
2022/04/19 05:31:02;;;;;;;13.90;10.38;;;;;;;6.73;61.90;94544.19;5015687;28;20041;-80
2022/04/19 05:33:28;;;;;;;12.30;8.63;;;;;;;6.68;61.50;94544.84;5016472;28;20042;-79
2022/04/19 05:35:55;;;;;;;10.75;8.13;;;;;;;6.60;61.72;94545.88;5016960;28;20078;-79
2022/04/19 05:38:20;;;;;;;13.48;10.35;;;;;;;6.59;62.25;94546.09;5014037;28;20087;-79
2022/04/19 05:40:49;;;;;;;30.92;20.70;;;;;;;6.64;62.10;94548.81;5013477;28;20153;-79
2022/04/19 05:43:14;;;;;;;18.55;13.52;;;;;;;6.71;61.61;94551.34;5013580;28;20041;-79
2022/04/19 05:45:40;;;;;;;15.23;11.13;;;;;;;6.71;61.68;94556.53;5012979;28;20401;-79
2022/04/19 05:48:07;;;;;;;9.68;8.68;;;;;;;6.69;61.51;94555.94;4997089;28;20104;-79
2022/04/19 05:50:32;;;;;;;12.77;8.55;;;;;;;6.71;61.93;94559.13;5013131;28;20045;-78
2022/04/19 05:52:58;;;;;;;16.25;9.07;;;;;;;6.85;61.91;94560.56;5005294;28;20552;-79
2022/04/19 05:55:23;;;;;;;17.38;11.82;;;;;;;6.97;60.45;94558.81;5011772;28;20026;-80
2022/04/19 05:57:49;;;;;;;16.70;12.57;;;;;;;7.10;61.09;94550.94;4997075;28;20569;-79
2022/04/19 06:00:15;;;;;;;16.00;11.00;;;;;;;7.31;60.72;94569.59;4996437;28;20042;-79
2022/04/19 06:05:24;;;;;;;13.15;9.25;;;;;;;7.55;60.21;94566.13;5014932;28;20057;-79
2022/04/19 06:07:52;;;;;;;8.27;7.18;;;;;;;7.73;58.32;94563.50;5014623;28;20034;-79
2022/04/19 06:10:17;;;;;;;8.55;7.68;;;;;;;7.76;58.90;94562.25;5014938;28;20068;-80
2022/04/19 06:12:43;;;;;;;8.57;7.18;;;;;;;7.71;59.64;94568.09;5015574;28;20025;-79
2022/04/19 06:15:10;;;;;;;7.95;7.15;;;;;;;7.73;59.08;94560.13;5012687;28;20030;-79
2022/04/19 06:17:37;;;;;;;7.22;6.53;;;;;;;7.59;58.58;94562.06;4995647;28;20052;-79
2022/04/19 06:20:04;;;;;;;5.88;5.47;;;;;;;7.51;58.93;94573.53;4996961;28;20160;-79
2022/04/19 06:22:29;;;;;;;5.22;4.82;;;;;;;7.48;58.55;94560.22;5013286;28;20034;-79
2022/04/19 06:24:55;;;;;;;4.68;4.38;;;;;;;7.45;59.21;94565.84;5012443;28;20026;-80
2022/04/19 06:27:21;;;;;;;5.10;4.70;;;;;;;7.38;59.38;94570.31;5014573;28;20056;-79
2022/04/19 06:29:47;;;;;;;4.10;3.80;;;;;;;7.34;59.29;94575.13;5012173;28;20037;-79
2022/04/19 06:32:13;;;;;;;22.15;13.93;;;;;;;7.38;59.69;94572.91;5014387;28;20029;-79
2022/04/19 06:34:40;;;;;;;10.52;7.18;;;;;;;7.62;59.27;94582.34;5014433;28;20037;-79
2022/04/19 06:37:05;;;;;;;3.53;3.22;;;;;;;7.71;57.22;94575.06;5012316;28;20058;-79
2022/04/19 06:39:31;;;;;;;2.92;2.72;;;;;;;7.66;57.73;94578.31;5012075;28;20042;-79
2022/04/19 06:41:56;;;;;;;3.45;3.15;;;;;;;7.70;58.21;94578.66;5019060;28;20093;-79
2022/04/19 06:44:21;;;;;;;6.43;2.80;;;;;;;7.75;57.04;94577.00;5021374;28;20078;-79
2022/04/19 06:46:50;;;;;;;3.05;2.85;;;;;;;7.78;57.79;94578.34;5015796;28;20034;-79
2022/04/19 06:49:16;;;;;;;3.28;3.03;;;;;;;7.89;57.41;94582.78;5017427;28;20034;-79
2022/04/19 06:51:42;;;;;;;3.15;2.78;;;;;;;7.97;57.11;94577.31;4999980;28;20050;-79
2022/04/19 06:54:09;;;;;;;2.65;2.45;;;;;;;8.02;58.02;94582.59;5000446;28;20053;-79
2022/04/19 06:56:35;;;;;;;3.25;3.05;;;;;;;8.12;58.15;94582.06;5017963;28;20038;-78
2022/04/19 06:59:00;;;;;;;3.03;2.83;;;;;;;8.10;56.65;94589.25;5004874;28;20100;-80
2022/04/19 07:01:26;;;;;;;3.40;3.10;;;;;;;8.20;55.39;94578.38;5015799;28;20038;-79
2022/04/19 07:03:52;;;;;;;3.28;3.10;;;;;;;8.15;56.59;94586.03;5000188;28;20065;-79
2022/04/19 07:06:18;;;;;;;3.75;3.45;;;;;;;8.07;58.11;94585.31;5031917;28;20022;-78
2022/04/19 07:08:44;;;;;;;5.18;4.75;;;;;;;8.09;58.38;94596.25;5021221;28;20110;-79
2022/04/19 07:11:11;;;;;;;12.90;8.38;;;;;;;8.18;58.11;94591.53;5036422;28;20072;-79
2022/04/19 07:13:37;;;;;;;7.40;6.55;;;;;;;8.17;57.78;94595.16;5007498;28;20045;-80
2022/04/19 07:16:02;;;;;;;9.73;7.53;;;;;;;8.16;57.89;94603.94;5015715;28;20038;-80
2022/04/19 07:18:28;;;;;;;8.75;7.47;;;;;;;8.24;57.70;94595.81;5000782;28;20154;-79
2022/04/19 07:29:06;;;;;;;5.07;4.32;;;;;;;8.53;55.38;94603.81;5016907;28;20137;-80
2022/04/19 07:31:33;;;;;;;4.85;4.13;;;;;;;8.77;55.16;94591.63;5000110;28;20104;-80
2022/04/19 07:33:58;;;;;;;3.85;3.55;;;;;;;9.02;53.73;94597.38;5020709;28;20034;-79
2022/04/19 07:36:24;;;;;;;4.35;3.95;;;;;;;9.13;52.79;94593.22;5016454;28;20553;-79
2022/04/19 07:38:50;;;;;;;5.05;4.55;;;;;;;9.32;54.08;94602.44;5017232;28;20056;-79
2022/04/19 07:41:17;;;;;;;6.63;5.10;;;;;;;9.71;54.25;94600.84;5030293;28;20580;-80
2022/04/19 07:43:44;;;;;;;9.75;6.63;;;;;;;10.07;53.75;94599.69;5016863;28;20046;-80
2022/04/19 07:46:15;;;;;;;11.73;9.43;;;;;;;10.24;51.56;94594.53;5031434;28;20089;-80
2022/04/19 07:48:42;;;;;;;17.52;10.55;;;;;;;10.19;50.55;94597.03;5016489;28;20546;-80
2022/04/19 07:51:07;;;;;;;7.82;6.18;;;;;;;10.22;48.77;94602.56;4998640;28;20045;-79
2022/04/19 07:53:33;;;;;;;5.28;4.78;;;;;;;10.27;49.57;94595.91;5014730;28;20609;-79
2022/04/19 07:55:58;;;;;;;8.75;5.90;;;;;;;10.50;49.80;94600.94;5015780;28;20032;-79
2022/04/19 07:58:24;;;;;;;4.45;2.80;;;;;;;10.77;47.91;94599.31;5000197;28;20037;-80
2022/04/19 08:00:50;;;;;;;2.70;2.50;;;;;;;10.94;48.40;94601.09;4997922;28;20042;-80
2022/04/19 08:03:15;;;;;;;4.70;4.30;;;;;;;10.93;46.79;94589.13;5000443;28;20033;-79
2022/04/19 08:05:41;;;;;;;7.50;4.38;;;;;;;10.90;47.54;94592.16;4998538;28;20038;-79
2022/04/19 08:08:07;;;;;;;3.42;3.15;;;;;;;10.89;47.76;94588.00;4999122;28;20497;-79
2022/04/19 08:10:32;;;;;;;5.15;2.47;;;;;;;10.85;47.69;94590.28;4998189;28;20516;-79
2022/04/19 08:12:58;;;;;;;2.75;2.55;;;;;;;11.00;47.94;94593.13;5016477;28;20037;-79
2022/04/19 08:15:24;;;;;;;4.95;2.08;;;;;;;11.06;46.79;94592.19;4999961;28;20037;-79
2022/04/19 08:17:49;;;;;;;4.03;3.72;;;;;;;11.11;47.60;94591.44;5002205;28;20042;-78
2022/04/19 08:20:15;;;;;;;9.05;6.95;;;;;;;11.04;46.32;94588.22;5015492;28;20064;-78
2022/04/19 08:22:41;;;;;;;3.72;3.40;;;;;;;11.05;45.86;94585.38;5016254;28;20034;-79
2022/04/19 08:25:07;;;;;;;4.43;2.95;;;;;;;11.37;45.08;94582.13;5000637;28;20121;-78
2022/04/19 08:27:33;;;;;;;2.90;2.70;;;;;;;11.57;43.84;94577.19;4999272;28;20053;-80
2022/04/19 08:29:59;;;;;;;3.58;3.30;;;;;;;11.84;43.29;94577.22;4998203;28;20478;-79
2022/04/19 08:32:24;;;;;;;3.15;2.92;;;;;;;12.19;42.00;94573.41;5016285;28;20045;-79
2022/04/19 08:34:50;;;;;;;5.32;3.70;;;;;;;12.50;42.89;94582.28;5018976;28;20037;-81
2022/04/19 08:37:16;;;;;;;4.88;2.85;;;;;;;12.74;41.73;94569.69;5018005;28;20038;-79
2022/04/19 08:39:41;;;;;;;2.90;2.70;;;;;;;12.88;40.48;94573.44;5016984;28;20041;-79
2022/04/19 08:42:07;;;;;;;4.55;3.47;;;;;;;12.90;40.01;94563.53;4997017;28;20068;-80
2022/04/19 08:44:35;;;;;;;4.05;3.65;;;;;;;12.96;39.91;94567.72;5001082;28;20057;-80
2022/04/19 08:47:01;;;;;;;6.90;4.95;;;;;;;12.97;40.73;94564.06;5018620;28;20069;-79
2022/04/19 08:49:27;;;;;;;8.75;4.50;;;;;;;13.04;40.66;94561.25;4996651;28;20064;-79
2022/04/19 08:51:52;;;;;;;7.47;4.80;;;;;;;13.05;39.70;94561.00;5014628;28;20046;-79
2022/04/19 08:59:46;;;;;;;3.38;3.08;;;;;;;12.83;39.55;94568.16;5015869;28;20095;-79
2022/04/19 09:02:19;;;;;;;4.10;3.22;;;;;;;12.52;40.87;94569.75;5013611;28;20034;-79
2022/04/19 09:04:45;;;;;;;6.18;5.13;;;;;;;12.26;40.60;94574.00;5014637;28;20088;-79
2022/04/19 09:07:10;;;;;;;6.20;5.60;;;;;;;12.11;41.10;94568.66;4997636;28;20037;-78
2022/04/19 09:09:37;;;;;;;5.40;3.70;;;;;;;12.02;40.86;94565.69;5012193;28;20057;-78
2022/04/19 09:12:08;;;;;;;3.95;3.65;;;;;;;12.02;40.06;94571.69;5013525;28;20046;-78
2022/04/19 09:14:34;;;;;;;3.88;3.60;;;;;;;11.94;39.47;94560.94;5012400;28;20477;-78
2022/04/19 09:17:10;;;;;;;8.35;4.00;;;;;;;11.96;39.84;94569.28;5012975;28;20042;-80
2022/04/19 09:20:07;;;;;;;9.68;6.55;;;;;;;12.06;40.47;94563.41;5014301;28;20061;-79
2022/04/19 09:22:33;;;;;;;4.70;4.38;;;;;;;12.18;39.24;94556.97;5013295;28;20038;-79
2022/04/19 09:25:20;;;;;;;7.68;5.97;;;;;;;12.37;40.52;94562.63;5015091;28;20409;-79
2022/04/19 09:27:47;;;;;;;6.40;5.75;;;;;;;12.27;39.31;94558.09;5000020;28;20061;-79
2022/04/19 09:30:34;;;;;;;7.88;6.78;;;;;;;11.98;38.75;94552.38;4998201;28;20690;-79
2022/04/19 09:33:08;;;;;;;12.52;5.85;;;;;;;11.82;40.58;94553.25;4998194;28;20077;-79
2022/04/19 09:35:37;;;;;;;5.47;4.97;;;;;;;11.71;41.21;94556.75;5015522;28;20101;-79
2022/04/19 09:38:04;;;;;;;17.38;6.78;;;;;;;11.86;41.93;94550.94;5014826;28;20052;-79
2022/04/19 09:40:37;;;;;;;6.47;5.07;;;;;;;11.81;40.68;94556.88;4997949;28;20030;-79
2022/04/19 09:43:10;;;;;;;5.93;5.32;;;;;;;11.83;41.30;94551.44;4998270;28;20460;-79
2022/04/19 09:45:56;;;;;;;8.43;4.63;;;;;;;11.75;39.24;94542.22;5015053;28;20101;-79
2022/04/19 09:48:27;;;;;;;9.30;4.53;;;;;;;11.79;41.32;94537.31;5016090;28;20033;-78
2022/04/19 09:50:59;;;;;;;9.65;4.25;;;;;;;11.87;38.33;94540.25;5010501;28;20037;-78
2022/04/19 09:53:25;;;;;;;;;;;;;;;11.83;40.29;94533.19;5028876;28;20111;-79
2022/04/19 09:55:52;;;;;;;6.97;5.57;;;;;;;11.79;40.35;94540.72;5014295;28;20008;-79
2022/04/19 09:58:19;;;;;;;8.15;5.40;;;;;;;11.82;37.33;94529.81;5014615;28;20053;-79
2022/04/19 10:00:45;;;;;;;8.68;4.63;;;;;;;11.90;37.52;94533.81;4998275;28;20049;-79
2022/04/19 10:08:43;;;;;;;6.18;3.60;;;;;;;12.10;35.51;94520.94;5012766;28;20040;-79
2022/04/19 10:11:09;;;;;;;10.35;4.90;;;;;;;12.39;36.71;94521.44;5013376;28;20034;-80
2022/04/19 10:13:35;;;;;;;6.35;4.03;;;;;;;12.58;38.03;94519.22;4994138;28;20100;-79
2022/04/19 10:16:00;;;;;;;4.22;3.88;;;;;;;12.33;34.45;94517.22;5010741;28;20029;-80
2022/04/19 10:18:26;;;;;;;3.08;2.88;;;;;;;11.36;33.61;94521.47;4994643;28;20026;-82
2022/04/19 10:20:53;;;;;;;2.60;2.50;;;;;;;11.39;35.21;94522.84;5010828;28;20042;-79
2022/04/19 10:23:19;;;;;;;3.08;2.88;;;;;;;11.34;34.06;94520.94;5018586;28;20025;-79
2022/04/19 10:25:46;;;;;;;2.50;2.40;;;;;;;11.38;34.22;94522.00;5010739;28;20461;-80
2022/04/19 10:28:25;;;;;;;4.82;3.42;;;;;;;11.52;34.15;94511.22;4994349;28;20361;-78
2022/04/19 10:30:51;;;;;;;3.63;3.42;;;;;;;11.52;32.56;94506.03;5011926;28;20117;-79
2022/04/19 10:33:38;;;;;;;6.22;3.78;;;;;;;11.38;35.82;94514.19;5012562;28;20556;-78
2022/04/19 10:36:40;;;;;;;5.28;3.28;;;;;;;11.32;35.85;94507.38;5009001;28;20073;-78
2022/04/19 10:39:11;;;;;;;2.63;2.42;;;;;;;11.12;35.46;94499.34;5012809;28;20113;-79
2022/04/19 10:42:03;;;;;;;3.90;3.50;;;;;;;11.04;33.31;94510.16;5011461;28;20045;-80
2022/04/19 10:44:35;;;;;;;7.40;4.25;;;;;;;10.90;34.70;94514.94;4996918;28;20042;-81
2022/04/19 10:47:14;;;;;;;9.80;6.80;;;;;;;10.90;33.74;94511.53;4995777;28;20516;-80
2022/04/19 10:50:02;;;;;;;11.65;7.03;;;;;;;11.00;34.49;94516.88;5011849;28;20044;-80
2022/04/19 10:52:37;;;;;;;7.32;4.93;;;;;;;11.07;35.02;94514.91;5009773;28;20062;-80
2022/04/19 10:55:08;;;;;;;6.55;4.43;;;;;;;11.19;37.76;94505.13;5026280;28;20104;-79
2022/04/19 11:00:27;;;;;;;;;;;;;;;11.34;34.79;94509.72;5011692;28;20118;-80
2022/04/19 11:02:58;;;;;;;10.43;5.00;;;;;;;11.48;34.83;94499.75;5010478;28;20295;-80
2022/04/19 11:05:43;;;;;;;10.63;4.72;;;;;;;11.60;34.82;94505.59;5009078;28;20034;-79
2022/04/19 11:08:24;;;;;;;14.43;3.70;;;;;;;11.65;34.94;94497.81;5027086;28;20045;-80
2022/04/19 11:10:57;;;;;;;4.53;4.10;;;;;;;11.69;33.60;94497.09;5011222;28;20053;-81
2022/04/19 11:13:23;;;;;;;5.13;3.45;;;;;;;11.56;33.76;94496.72;5026410;28;20050;-80
2022/04/19 11:16:05;;;;;;;7.38;5.18;;;;;;;11.53;34.32;94502.38;4994332;28;20100;-81
2022/04/19 11:18:37;;;;;;;11.60;4.15;;;;;;;11.57;33.15;94508.69;5010677;28;20038;-81
2022/04/19 11:21:04;;;;;;;6.82;5.00;;;;;;;11.61;33.24;94496.75;5011100;28;20040;-80
2022/04/19 11:23:42;;;;;;;8.55;4.45;;;;;;;11.49;32.63;94502.09;4993355;28;20042;-80
2022/04/19 11:26:30;;;;;;;20.45;6.28;;;;;;;11.56;33.44;94502.69;5028058;28;20046;-83
2022/04/19 11:29:18;;;;;;;8.15;4.22;;;;;;;11.67;30.98;94493.16;5014817;28;20485;-81
2022/04/19 11:31:43;;;;;;;3.60;3.30;;;;;;;11.73;31.44;94492.97;5029826;28;20038;-81
2022/04/19 11:34:12;;;;;;;7.35;5.45;;;;;;;11.79;31.15;94486.00;5012422;28;20062;-81
2022/04/19 11:36:38;;;;;;;3.15;2.60;;;;;;;11.87;30.74;94482.94;4997352;28;20049;-81
2022/04/19 11:39:04;;;;;;;5.78;4.63;;;;;;;11.86;31.07;94483.97;4997616;28;20042;-81
2022/04/19 11:47:13;;;;;;;21.27;12.55;;;;;;;11.96;30.18;94497.09;5008500;28;20112;-81
2022/04/19 11:49:39;;;;;;;22.70;10.55;;;;;;;12.03;32.00;94502.09;4998376;28;20033;-79
2022/04/19 11:52:11;;;;;;;15.88;8.93;;;;;;;12.06;32.69;94501.63;5015199;28;20060;-80
2022/04/19 11:54:37;;;;;;;;;;;;;;;12.02;32.44;94505.75;5013624;28;20466;-80
2022/04/19 11:57:04;;;;;;;20.52;9.82;;;;;;;11.94;33.14;94499.19;5029565;28;19931;-80
2022/04/19 11:59:32;;;;;;;24.60;10.00;;;;;;;11.86;33.40;94502.22;5013495;28;20044;-80
2022/04/19 12:01:58;;;;;;;23.08;9.43;;;;;;;11.86;34.21;94506.66;5013410;28;20026;-80
2022/04/19 12:04:24;;;;;;;12.70;8.68;;;;;;;11.78;31.95;94500.03;5017188;28;20060;-80
2022/04/19 12:06:54;;;;;;;12.32;7.60;;;;;;;11.71;32.41;94504.66;5012582;28;20061;-81
2022/04/19 12:09:19;;;;;;;6.40;4.45;;;;;;;11.56;31.49;94505.31;4996332;28;20032;-80
2022/04/19 12:15:07;;;;;;;3.00;2.78;;;;;;;11.25;32.38;94506.00;5012729;28;20064;-74
2022/04/19 12:17:32;;;;;;;2.42;2.17;;;;;;;11.38;32.12;94492.59;5010571;28;20478;-74
2022/04/19 12:20:05;;;;;;;4.82;2.35;;;;;;;11.63;31.54;94485.06;5010613;28;20038;-74
2022/04/19 12:22:33;;;;;;;10.93;2.42;;;;;;;11.84;30.13;94477.44;5010938;28;20034;-73